Thunder radar more information blitzortung!


Radar de pluja more information rain snow radar


Visita la nostra xarxa de llocs de meteo:

Template documentation
and downloads

And another site



No particular awareness of the weather is required.    There are no Weather-warnings

Pagina Historial Weather Underground text

Diari Resum January 11, 2018 Unitats:  Mètric    Imperial   Tant
« Previous Dia
SegĂźent Dia »
Diari Setmana Mensual Anual Personalitzada
  Maxima: Minima: Media:
Temperatura: -17.8 °C -16.4 °C -13.7 °C
Punt de rosada: -17.8 °C -19.8 °C -18.3 °C
Humitat: Humidity % 47 % 55 %
Wind Speed: 0 km/h 0 km/h 7.7 km/h
RĂ fegues de vent: 0 km/h - -
Vent:- - WSW
Pression baro: 0 hPa 34256.2 hPa -
Precipitacions: 0 mm    
Historical Graphs
 
 
Dades de taula per January 11, 2018
Temps Temperatura Punt de rosada Pression baro Vent Wind Speed RĂ fegues de vent Humitat Rainfall Rate (Hourly)
-17.8 °C -17.8 °C 0 hPa Calm     Humidity % 0 mm
00:05 -14.2 °C -18.3 °C 34256.2 hPa WSW 2.6 km/h 10.3 km/h 59 % 0 mm
00:15 -14.2 °C -18.3 °C 34256.2 hPa WSW 5.1 km/h 10.3 km/h 59 % 0 mm
00:25 -14.3 °C -18.4 °C 34256.2 hPa Calm   5.1 km/h 59 % 0 mm
00:35 -14.3 °C -18.4 °C 34293.4 hPa WSW 2.6 km/h 7.7 km/h 59 % 0 mm
00:45 -14.3 °C -18.4 °C 34293.4 hPa West 2.6 km/h 10.3 km/h 59 % 0 mm
00:55 -14.3 °C -18.4 °C 34327.3 hPa Calm   5.1 km/h 59 % 0 mm
01:05 -14.2 °C -18.4 °C 34293.4 hPa West 5.1 km/h 12.9 km/h 59 % 0 mm
01:20 -14.2 °C -18.5 °C 34293.4 hPa WSW 2.6 km/h 5.1 km/h 58 % 0 mm
01:30 -14.3 °C -18.4 °C 34293.4 hPa WSW 5.1 km/h 10.3 km/h 59 % 0 mm
01:40 -14.2 °C -18.5 °C 34327.3 hPa WSW 5.1 km/h 10.3 km/h 58 % 0 mm
01:50 -14.2 °C -18.5 °C 34327.3 hPa WSW 5.1 km/h 10.3 km/h 58 % 0 mm
02:00 -14.3 °C -18.6 °C 34327.3 hPa West 2.6 km/h 10.3 km/h 58 % 0 mm
02:10 -14.4 °C -18.8 °C 34293.4 hPa West 5.1 km/h 7.7 km/h 57 % 0 mm
02:20 -14.4 °C -18.8 °C 34293.4 hPa West 5.1 km/h 7.7 km/h 57 % 0 mm
02:30 -14.4 °C -18.8 °C 34293.4 hPa West 5.1 km/h 7.7 km/h 57 % 0 mm
02:40 -14.4 °C -18.8 °C 34327.3 hPa WSW 2.6 km/h 15.6 km/h 57 % 0 mm
02:50 -14.6 °C -18.9 °C 34327.3 hPa West 2.6 km/h 2.6 km/h 57 % 0 mm
03:00 -14.6 °C -18.9 °C 34327.3 hPa WNW 5.1 km/h 10.3 km/h 57 % 0 mm
03:10 -14.6 °C -19 °C 34327.3 hPa NNW 5.1 km/h 5.1 km/h 57 % 0 mm
03:20 -14.6 °C -18.9 °C 34327.3 hPa North 2.6 km/h 5.1 km/h 57 % 0 mm
03:40 -13.8 °C -18.2 °C 34293.4 hPa Calm   5.1 km/h 57 % 0 mm
03:50 -13.7 °C -18.3 °C 34327.3 hPa South 2.6 km/h 7.7 km/h 56 % 0 mm
04:00 -13.6 °C -18.1 °C 34327.3 hPa SSW 5.1 km/h 5.1 km/h 56 % 0 mm
04:20 -13.2 °C -17.9 °C 34327.3 hPa SW 5.1 km/h 10.3 km/h 55 % 0 mm
04:30 -13.1 °C -17.9 °C 34327.3 hPa WSW 5.1 km/h 7.7 km/h 54 % 0 mm
10:50 -12.7 °C -17.8 °C 34327.3 hPa West 9 km/h 9 km/h 53 % 0 mm
11:24 -12.3 °C -17.4 °C 34327.3 hPa WNW 20.9 km/h 20.9 km/h 53 % 0 mm
11:30 -12.4 °C -17.6 °C 34327.3 hPa WNW 11.9 km/h 11.9 km/h 52 % 0 mm
11:36 -12.3 °C -17.5 °C 34327.3 hPa WSW 9 km/h 9 km/h 52 % 0 mm
11:43 -12.3 °C -17.6 °C 34327.3 hPa SW 22 km/h 22 km/h 52 % 0 mm
11:48 -12.3 °C -17.6 °C 34327.3 hPa West 23.8 km/h 23.8 km/h 52 % 0 mm
11:53 -12.3 °C -17.7 °C 34293.4 hPa West 16.6 km/h 16.6 km/h 51 % 0 mm
11:59 -12.1 °C -17.5 °C 34293.4 hPa NW 20.9 km/h 20.9 km/h 51 % 0 mm
12:35 -11.6 °C -17.1 °C 34293.4 hPa SW 10.3 km/h 10.3 km/h 51 % 0 mm
12:48 -11.5 °C -16.9 °C 34293.4 hPa North 3.7 km/h 4.2 km/h 51 % 0 mm
13:19 -11.5 °C -17.3 °C 34327.3 hPa North 11.9 km/h 11.9 km/h 49 % 0 mm
13:25 -11.5 °C -17.3 °C 34327.3 hPa NNW 20.9 km/h 20.9 km/h 49 % 0 mm
13:30 -11.6 °C -17.3 °C 34327.3 hPa WNW 15 km/h 15 km/h 49 % 0 mm
13:45 -11.4 °C -17.1 °C 34327.3 hPa WNW 15 km/h 15 km/h 49 % 0 mm
13:56 -11.3 °C -17.1 °C 34327.3 hPa NNW 15 km/h 15 km/h 49 % 0 mm
14:15 -11.3 °C -16.9 °C 34327.3 hPa NW 8.5 km/h 8.5 km/h 50 % 0 mm
14:23 -11.4 °C -17.1 °C 34327.3 hPa South 9 km/h 9 km/h 49 % 0 mm
14:33 -11.3 °C -17.1 °C 34327.3 hPa NNW 15 km/h 15 km/h 49 % 0 mm
14:41 -11.3 °C -17.1 °C 34327.3 hPa WSW 17.9 km/h 17.9 km/h 49 % 0 mm
15:04 -11.3 °C -17.2 °C 34327.3 hPa West 20.9 km/h 20.9 km/h 48 % 0 mm
15:27 -10.7 °C -16.7 °C 34327.3 hPa SSE 11.9 km/h 11.9 km/h 48 % 0 mm
15:35 -10.7 °C -16.7 °C 34327.3 hPa NW 15 km/h 15 km/h 48 % 0 mm
15:47 -10.8 °C -16.8 °C 34327.3 hPa West 17.9 km/h 17.9 km/h 48 % 0 mm
15:52 -10.9 °C -17 °C 34327.3 hPa West 15.6 km/h 15.6 km/h 47 % 0 mm
15:57 -10.8 °C -16.9 °C 34327.3 hPa West 15 km/h 15 km/h 47 % 0 mm
16:10 -10.9 °C -17 °C 34327.3 hPa West 15.3 km/h 15.3 km/h 47 % 0 mm
16:21 -10.9 °C -17.1 °C 34327.3 hPa WNW 15 km/h 15 km/h 47 % 0 mm
16:35 -11 °C -17.1 °C 34327.3 hPa WNW 9 km/h 9 km/h 47 % 0 mm
16:47 -11.1 °C -17.2 °C 34327.3 hPa WSW 15 km/h 15 km/h 47 % 0 mm
16:53 -11.1 °C -17.2 °C 34327.3 hPa WSW 15 km/h 15 km/h 47 % 0 mm
16:58 -11.2 °C -17.3 °C 34327.3 hPa WSW 11.9 km/h 11.9 km/h 47 % 0 mm
17:07 -11.3 °C -17.4 °C 34361.1 hPa West 15 km/h 15 km/h 47 % 0 mm
17:20 -11.4 °C -17.4 °C 34361.1 hPa West 7.6 km/h 7.6 km/h 47 % 0 mm
17:32 -11.6 °C -17.5 °C 34361.1 hPa West 5.1 km/h   48 % 0 mm
17:38 -11.8 °C -17.7 °C 34361.1 hPa West 9.8 km/h 9.8 km/h 48 % 0 mm
17:46 -11.9 °C -17.8 °C 34361.1 hPa West 11.9 km/h 11.9 km/h 48 % 0 mm
17:53 -12.1 °C -17.9 °C 34395 hPa WSW 6 km/h 6 km/h 48 % 0 mm
18:09 -12.3 °C -18.1 °C 34395 hPa WSW 6 km/h 6 km/h 48 % 0 mm
18:14 -12.3 °C -18.2 °C 34395 hPa South 7.6 km/h 7.6 km/h 48 % 0 mm
18:30 -14.8 °C -18.9 °C 34462.7 hPa Calm   7.7 km/h 59 % 0 mm
18:46 -12.7 °C -18.4 °C 34361.1 hPa NNE 7.6 km/h 7.6 km/h 49 % 0 mm
18:50 -14.9 °C -18.9 °C 34462.7 hPa Calm   7.7 km/h 60 % 0 mm
18:58 -12.8 °C -18.5 °C 34395 hPa WNW 9 km/h 9 km/h 49 % 0 mm
19:00 -15 °C -18.9 °C 34462.7 hPa Calm   5.1 km/h 60 % 0 mm
19:10 -15.1 °C -18.9 °C 34462.7 hPa Calm   5.1 km/h 61 % 0 mm
19:20 -15.1 °C -18.9 °C 34462.7 hPa Calm   5.1 km/h 61 % 0 mm
19:30 -15.1 °C -18.9 °C 34462.7 hPa Calm   5.1 km/h 61 % 0 mm
19:31 -13.1 °C -18.5 °C 34361.1 hPa WNW 11.9 km/h 11.9 km/h 50 % 0 mm
19:40 -15.2 °C -19 °C 34462.7 hPa WSW 5.1 km/h 10.3 km/h 61 % 0 mm
19:50 -15.2 °C -19 °C 34462.7 hPa WSW 2.6 km/h 7.7 km/h 61 % 0 mm
19:51 -13.2 °C -18.5 °C 34395 hPa WSW 9 km/h 9 km/h 51 % 0 mm
19:57 -13.3 °C -18.6 °C 34395 hPa WSW 7.6 km/h 7.6 km/h 51 % 0 mm
20:00 -15.2 °C -19.1 °C 34462.7 hPa WSW 5.1 km/h 5.1 km/h 61 % 0 mm
20:10 -15.3 °C -19.1 °C 34462.7 hPa SW 5.1 km/h 5.1 km/h 62 % 0 mm
20:11 -13.3 °C -18.7 °C 34395 hPa WSW 15 km/h 15 km/h 51 % 0 mm
20:18 -13.4 °C -18.7 °C 34395 hPa WSW 15 km/h 15 km/h 51 % 0 mm
20:20 -15.4 °C -19.1 °C 34462.7 hPa SW 2.6 km/h 5.1 km/h 62 % 0 mm
20:23 -13.4 °C -18.6 °C 34395 hPa WNW 15 km/h 15 km/h 52 % 0 mm
20:30 -15.4 °C -19.1 °C 34462.7 hPa WSW 5.1 km/h 5.1 km/h 62 % 0 mm
20:40 -15.4 °C -19 °C 34462.7 hPa WSW 2.6 km/h 5.1 km/h 63 % 0 mm
20:42 -13.6 °C -18.7 °C 34395 hPa West 17.9 km/h 17.9 km/h 52 % 0 mm
20:47 -13.6 °C -18.6 °C 34395 hPa WSW 8.5 km/h   53 % 0 mm
20:50 -15.6 °C -19.2 °C 34496.6 hPa WSW 2.6 km/h 5.1 km/h 63 % 0 mm
21:00 -15.7 °C -19.2 °C 34496.6 hPa Calm     63 % 0 mm
21:10 -15.7 °C -19.2 °C 34496.6 hPa Calm     64 % 0 mm
21:20 -15.7 °C -19.2 °C 34496.6 hPa WNW 2.6 km/h 7.7 km/h 64 % 0 mm
21:30 -15.8 °C -19.3 °C 34496.6 hPa WNW 2.6 km/h 5.1 km/h 63 % 0 mm
21:34 -13.8 °C -18.7 °C 34428.8 hPa WSW 15 km/h 15 km/h 54 % 0 mm
21:40 -15.8 °C -19.3 °C 34496.6 hPa WNW 2.6 km/h 5.1 km/h 64 % 0 mm
21:50 -13.9 °C -18.7 °C 34452.6 hPa West 5.1 km/h 12.9 km/h 55 % 0 mm
21:57 -14.1 °C -18.7 °C 34462.7 hPa NW 9.8 km/h 9.8 km/h 55 % 0 mm
22:00 -16.1 °C -19.6 °C 34496.6 hPa Calm     64 % 0 mm
22:04 -14.1 °C -18.7 °C 34462.7 hPa WSW 9 km/h 9 km/h 55 % 0 mm
22:10 -16.1 °C -19.4 °C 34496.6 hPa WSW 2.6 km/h 2.6 km/h 65 % 0 mm
22:12 -14.1 °C -18.8 °C 34462.7 hPa West 11.9 km/h 11.9 km/h 55 % 0 mm
22:20 -16.3 °C -19.8 °C 34496.6 hPa West 5.1 km/h 5.1 km/h 64 % 0 mm
22:22 -14.2 °C -18.8 °C 34496.6 hPa WSW 17.9 km/h 17.9 km/h 55 % 0 mm
22:28 -14.2 °C -18.9 °C 34496.6 hPa West 10.3 km/h 10.3 km/h 55 % 0 mm
22:30 -16.3 °C -19.6 °C 34496.6 hPa Calm   5.1 km/h 65 % 0 mm
22:34 -14.2 °C -18.8 °C 34428.8 hPa West 14.5 km/h 14.5 km/h 56 % 0 mm
22:40 -16.2 °C -19.4 °C 34533.8 hPa Calm   5.1 km/h 66 % 0 mm
22:41 -14.2 °C -18.8 °C 34428.8 hPa WNW 15 km/h 15 km/h 56 % 0 mm
22:50 -16.2 °C -19.3 °C 34496.6 hPa Calm   2.6 km/h 66 % 0 mm
23:00 -16.2 °C -19.5 °C 34496.6 hPa NNE 2.6 km/h 5.1 km/h 65 % 0 mm
23:01 -14.3 °C -18.7 °C 34462.7 hPa West 9 km/h 9 km/h 57 % 0 mm
23:10 -16.3 °C -19.4 °C 34496.6 hPa Calm   2.6 km/h 66 % 0 mm
23:11 -14.4 °C -18.8 °C 34462.7 hPa WNW 6 km/h 6 km/h 57 % 0 mm
23:18 -14.4 °C -18.8 °C 34462.7 hPa WNW 11.9 km/h 11.9 km/h 57 % 0 mm
23:20 -16.3 °C -19.5 °C 34533.8 hPa Calm   2.6 km/h 66 % 0 mm
23:25 -14.4 °C -18.8 °C 34462.7 hPa West 11.9 km/h 11.9 km/h 57 % 0 mm
23:30 -16.3 °C -19.5 °C 34533.8 hPa NW 2.6 km/h 2.6 km/h 66 % 0 mm
23:37 -14.6 °C -18.8 °C 34462.7 hPa West 9 km/h 9 km/h 58 % 0 mm
23:40 -16.4 °C -19.7 °C 34533.8 hPa West 5.1 km/h 7.7 km/h 65 % 0 mm
23:42 -14.6 °C -18.8 °C 34462.7 hPa West 11.9 km/h 11.9 km/h 58 % 0 mm
23:49 -14.6 °C -18.7 °C 34462.7 hPa NW 3.7 km/h 3.7 km/h 59 % 0 mm
23:50 -16.4 °C -19.6 °C 34533.8 hPa Calm   7.7 km/h 66 % 0 mm
23:58 -14.7 °C -18.8 °C 34462.7 hPa Calm   3.1 km/h 59 % 0 mm
Meteo Sesrovires
Elogis d' Weather Underground - 2 mb

Guio original per  Jim McMurry - jmcmurry@mwt.net Adaptat per a la plantilla per  Wim van der Kuil - Leuven-Template.eu

Trobareu la nostra informacio del temps tambe a:

Weather Underground

AWEKAS